Terminal Aerodrome Forecast
Issued by NWS Paducah, KY

Home | Current Version | Previous Version | Text Only | Print | Product List | Glossary On
Versions: 1 2 3 4 5 6 7 8 9 10 11 12 13 14 15 16 17 18 19 20
000
FTUS43 KPAH 221014 AAA
TAFEVV
TAF AMD
KEVV 221014Z 2210/2306 VRB02KT P6SM BKN100
      TEMPO 2210/2214 3SM BR BKN012
     FM221400 00000KT 6SM BR BKN015
     FM221800 19005KT P6SM BKN040=

USA.gov is the U.S. government's official web portal to all federal, state and local government web resources and services.